Time;durP1;ratioP1;P1;durP2;ratioP2;P2;SDS_P1;SDS_P2;PMS_P1;PMS_P2;Temp;Humidity;BMP_temperature;BMP_pressure;BME280_temperature;BME280_humidity;BME280_pressure;Samples;Min_cycle;Max_cycle;Signal;HPM_P1;HPM_P2
2022/02/17 00:02:14;;;;;;;;;;;;;;;30.60;21.16;100548.81;5072180;28;820;-37
2022/02/17 00:04:39;;;;;;;;;;;;;;;30.75;21.12;100545.88;5074812;28;785;-36
2022/02/17 00:07:04;;;;;;;;;;;;;;;30.41;21.29;100547.81;5078431;28;952;-36
2022/02/17 00:09:29;;;;;;;;;;;;;;;30.27;21.91;100542.41;5078210;28;865;-38
2022/02/17 00:11:55;;;;;;;;;;;;;;;29.73;21.92;100530.66;5077656;28;1449;-35
2022/02/17 00:14:20;;;;;;;;;;;;;;;30.18;21.56;100533.59;5078299;28;861;-37
2022/02/17 00:16:47;;;;;;;;;;;;;;;30.27;21.57;100528.84;5071212;28;827;-37
2022/02/17 00:19:13;;;;;;;;;;;;;;;30.61;21.42;100536.94;5077676;28;1910;-37
2022/02/17 00:21:38;;;;;;;;;;;;;;;30.51;21.46;100531.91;5078014;28;821;-37
2022/02/17 00:24:04;;;;;;;;;;;;;;;30.21;21.94;100539.69;5078013;28;889;-38
2022/02/17 00:26:29;;;;;;;;;;;;;;;29.96;22.26;100527.56;5077773;28;857;-35
2022/02/17 00:28:57;;;;;;;;;;;;;;;30.08;21.86;100527.75;5077976;28;843;-38
2022/02/17 00:31:22;;;;;;;;;;;;;;;30.03;21.97;100522.97;5074757;28;1611;-37
2022/02/17 00:33:48;;;;;;;;;;;;;;;30.28;21.76;100524.25;5077678;28;1235;-40
2022/02/17 00:36:13;;;;;;;;;;;;;;;30.60;21.35;100512.69;5077827;28;817;-37
2022/02/17 00:38:39;;;;;;;;;;;;;;;30.30;21.53;100520.28;5077373;28;1975;-33
2022/02/17 00:41:04;;;;;;;;;;;;;;;30.22;21.65;100525.06;5077910;28;864;-36
2022/02/17 00:43:29;;;;;;;;;;;;;;;30.07;21.70;100515.25;5070973;28;848;-35
2022/02/17 00:45:55;;;;;;;;;;;;;;;30.26;21.68;100513.59;5074760;28;1550;-38
2022/02/17 00:48:20;;;;;;;;;;;;;;;30.36;21.40;100505.03;5077618;28;797;-37
2022/02/17 00:50:45;;;;;;;;;;;;;;;30.56;21.39;100504.16;5076955;28;896;-35
2022/02/17 00:53:10;;;;;;;;;;;;;;;30.43;21.50;100486.84;5077482;28;818;-38
2022/02/17 00:55:36;;;;;;;;;;;;;;;30.27;21.46;100498.16;5073758;28;892;-39
2022/02/17 00:58:01;;;;;;;;;;;;;;;30.02;22.04;100491.47;5072805;28;1953;-36
2022/02/17 01:00:26;;;;;;;;;;;;;;;30.16;21.72;100486.03;5076296;28;865;-38
2022/02/17 01:02:52;;;;;;;;;;;;;;;30.19;21.72;100481.03;5076863;28;778;-35
2022/02/17 01:05:17;;;;;;;;;;;;;;;30.49;21.30;100465.34;5077157;28;801;-37
2022/02/17 01:07:42;;;;;;;;;;;;;;;30.38;21.68;100467.66;5076458;28;896;-34
2022/02/17 01:10:08;;;;;;;;;;;;;;;30.23;21.78;100465.16;5076965;28;1008;-34
2022/02/17 01:12:33;;;;;;;;;;;;;;;29.92;21.89;100470.19;5077009;28;802;-34
2022/02/17 01:14:58;;;;;;;;;;;;;;;30.14;21.88;100463.69;5075973;28;890;-37
2022/02/17 01:17:24;;;;;;;;;;;;;;;30.34;21.47;100460.16;5071841;28;1901;-33
2022/02/17 01:19:49;;;;;;;;;;;;;;;30.57;21.40;100461.53;5076921;28;920;-36
2022/02/17 01:22:15;;;;;;;;;;;;;;;30.51;21.29;100461.34;5073628;28;872;-36
2022/02/17 01:24:40;;;;;;;;;;;;;;;30.08;22.02;100451.81;5076667;28;1418;-36
2022/02/17 01:27:06;;;;;;;;;;;;;;;29.94;22.22;100464.56;5076882;28;792;-36
2022/02/17 01:29:31;;;;;;;;;;;;;;;30.05;21.95;100444.09;5076977;28;778;-35
2022/02/17 01:31:57;;;;;;;;;;;;;;;30.17;21.83;100447.84;5071740;28;1078;-37
2022/02/17 01:34:22;;;;;;;;;;;;;;;30.39;21.56;100447.63;5070311;28;889;-35
2022/02/17 01:36:47;;;;;;;;;;;;;;;30.60;21.07;100445.66;5076743;28;761;-37
2022/02/17 01:39:12;;;;;;;;;;;;;;;30.34;21.39;100442.00;5076714;28;1983;-39
2022/02/17 01:41:38;;;;;;;;;;;;;;;30.14;21.70;100434.72;5076152;28;1022;-34
2022/02/17 01:44:03;;;;;;;;;;;;;;;29.97;21.88;100431.59;5076088;28;877;-38
2022/02/17 01:46:38;;;;;;;;;;;;;;;30.28;21.58;100427.38;5073485;28;920;-36
2022/02/17 01:49:04;;;;;;;;;;;;;;;30.38;21.61;100426.13;5076417;28;806;-36
2022/02/17 01:51:30;;;;;;;;;;;;;;;30.58;21.27;100426.03;5076275;28;827;-37
2022/02/17 01:53:56;;;;;;;;;;;;;;;30.40;21.50;100427.56;5075811;28;781;-37
2022/02/17 01:56:21;;;;;;;;;;;;;;;30.23;21.60;100426.38;5076009;28;837;-37
2022/02/17 01:58:47;;;;;;;;;;;;;;;29.90;21.89;100425.34;5075690;28;1945;-37
2022/02/17 02:01:12;;;;;;;;;;;;;;;30.20;21.90;100424.91;5074060;28;995;-35
2022/02/17 02:03:37;;;;;;;;;;;;;;;30.27;21.60;100419.47;5075892;28;881;-38
2022/02/17 02:06:03;;;;;;;;;;;;;;;30.43;21.31;100405.44;5076065;28;828;-39
2022/02/17 02:08:28;;;;;;;;;;;;;;;30.49;21.43;100411.91;5076259;28;740;-36
2022/02/17 02:10:53;;;;;;;;;;;;;;;30.35;21.33;100412.97;5075916;28;1004;-38
2022/02/17 02:13:19;;;;;;;;;;;;;;;30.14;21.87;100404.88;5071811;28;876;-38
2022/02/17 02:15:47;;;;;;;;;;;;;;;30.39;21.51;100415.06;5070027;28;839;-33
2022/02/17 02:18:12;;;;;;;;;;;;;;;30.30;21.48;100405.47;5075593;28;1910;-35
2022/02/17 02:20:51;;;;;;;;;;;;;;;30.59;21.17;100397.88;5076150;28;772;-40
2022/02/17 02:23:16;;;;;;;;;;;;;;;30.53;21.43;100404.97;5075734;28;761;-36
2022/02/17 02:25:43;;;;;;;;;;;;;;;30.31;21.59;100409.88;5075557;28;798;-37
2022/02/17 02:28:08;;;;;;;;;;;;;;;30.09;21.81;100398.41;5076338;28;730;-37
2022/02/17 02:30:33;;;;;;;;;;;;;;;30.16;21.73;100396.53;5071363;28;849;-39
2022/02/17 02:32:59;;;;;;;;;;;;;;;30.26;21.64;100405.06;5075619;28;996;-37
2022/02/17 02:35:24;;;;;;;;;;;;;;;30.59;21.42;100397.88;5075854;28;766;-38
2022/02/17 02:37:49;;;;;;;;;;;;;;;30.42;21.38;100394.78;5072120;28;1977;-38
2022/02/17 02:40:15;;;;;;;;;;;;;;;30.24;21.76;100393.59;5075878;28;814;-37
2022/02/17 02:42:40;;;;;;;;;;;;;;;30.12;21.92;100395.25;5075561;28;822;-35
2022/02/17 02:45:06;;;;;;;;;;;;;;;30.36;21.68;100403.78;5075438;28;845;-38
2022/02/17 02:47:31;;;;;;;;;;;;;;;30.51;21.46;100408.97;5075886;28;928;-38
2022/02/17 02:49:56;;;;;;;;;;;;;;;30.65;21.29;100407.84;5070198;28;865;-37
2022/02/17 02:52:22;;;;;;;;;;;;;;;30.37;21.49;100411.72;5074288;28;810;-38
2022/02/17 02:54:47;;;;;;;;;;;;;;;30.18;21.77;100406.09;5075487;28;746;-35
2022/02/17 02:57:12;;;;;;;;;;;;;;;29.85;22.32;100398.00;5075485;28;1955;-38
2022/02/17 02:59:41;;;;;;;;;;;;;;;30.35;21.67;100412.97;5075335;28;837;-36
2022/02/17 03:02:06;;;;;;;;;;;;;;;30.48;21.35;100404.78;5069966;28;847;-38
2022/02/17 03:04:32;;;;;;;;;;;;;;;30.73;21.14;100401.34;5074188;28;826;-38
2022/02/17 03:06:57;;;;;;;;;;;;;;;30.43;21.51;100416.28;5074925;28;1108;-38
2022/02/17 03:09:23;;;;;;;;;;;;;;;30.23;21.60;100415.53;5075659;28;917;-41
2022/02/17 03:11:48;;;;;;;;;;;;;;;30.01;22.09;100410.31;5075379;28;1066;-35
2022/02/17 03:14:13;;;;;;;;;;;;;;;30.08;21.83;100413.81;5075153;28;782;-36
2022/02/17 03:16:39;;;;;;;;;;;;;;;30.18;21.79;100416.09;5069510;28;892;-37
2022/02/17 03:19:06;;;;;;;;;;;;;;;30.40;21.61;100421.31;5075431;28;1955;-37
2022/02/17 03:21:31;;;;;;;;;;;;;;;30.73;21.31;100419.53;5074896;28;959;-40
2022/02/17 03:23:57;;;;;;;;;;;;;;;30.34;21.38;100420.28;5076552;28;912;-36
2022/02/17 03:26:22;;;;;;;;;;;;;;;30.11;21.74;100424.28;5078715;28;873;-34
2022/02/17 03:28:47;;;;;;;;;;;;;;;29.93;22.34;100420.31;5075748;28;884;-39
2022/02/17 03:31:12;;;;;;;;;;;;;;;30.08;21.91;100413.81;5074990;28;815;-37
2022/02/17 03:33:38;;;;;;;;;;;;;;;30.14;21.86;100425.72;5078545;28;1313;-36
2022/02/17 03:36:03;;;;;;;;;;;;;;;30.39;21.52;100423.19;5078704;28;853;-37
2022/02/17 03:38:28;;;;;;;;;;;;;;;30.40;21.56;100421.31;5079129;28;1942;-38
2022/02/17 03:40:54;;;;;;;;;;;;;;;30.37;21.89;100424.44;5078304;28;887;-37
2022/02/17 03:43:19;;;;;;;;;;;;;;;30.30;21.71;100417.16;5078647;28;842;-38
2022/02/17 03:45:45;;;;;;;;;;;;;;;30.16;22.19;100412.78;5075848;28;835;-36
2022/02/17 03:48:10;;;;;;;;;;;;;;;30.39;21.73;100417.78;5078305;28;975;-37
2022/02/17 03:50:35;;;;;;;;;;;;;;;30.48;21.65;100423.78;5078612;28;789;-38
2022/02/17 03:53:01;;;;;;;;;;;;;;;30.61;21.64;100406.63;5078611;28;790;-36
2022/02/17 03:55:26;;;;;;;;;;;;;;;30.81;21.34;100404.88;5074820;28;875;-35
2022/02/17 03:57:51;;;;;;;;;;;;;;;30.49;21.19;100405.63;5076740;28;1959;-36
2022/02/17 04:00:17;;;;;;;;;;;;;;;30.22;22.03;100409.25;5077943;28;849;-37
2022/02/17 04:02:42;;;;;;;;;;;;;;;30.19;22.26;100399.66;5077946;28;826;-37
2022/02/17 04:05:07;;;;;;;;;;;;;;;30.23;22.05;100402.78;5078662;28;803;-37
2022/02/17 04:07:34;;;;;;;;;;;;;;;30.49;21.77;100402.91;5077539;28;903;-35
2022/02/17 04:09:59;;;;;;;;;;;;;;;30.71;21.42;100408.88;5077858;28;917;-38
2022/02/17 04:12:25;;;;;;;;;;;;;;;30.63;21.50;100407.22;5078242;28;825;-37
2022/02/17 04:14:50;;;;;;;;;;;;;;;30.05;21.64;100404.25;5078212;28;786;-35
2022/02/17 04:17:15;;;;;;;;;;;;;;;28.91;19.32;100394.16;5073983;28;1906;-36
2022/02/17 04:19:40;;;;;;;;;;;;;;;28.73;20.23;100384.69;5077942;28;837;-36
2022/02/17 04:22:07;;;;;;;;;;;;;;;28.30;19.48;100380.31;5075474;28;1038;-39
2022/02/17 04:24:33;;;;;;;;;;;;;;;27.11;19.72;100384.41;5078215;28;1077;-34
2022/02/17 04:26:58;;;;;;;;;;;;;;;27.14;21.03;100375.91;5078086;28;810;-35
2022/02/17 04:29:23;;;;;;;;;;;;;;;28.85;20.25;100384.94;5078041;28;829;-37
2022/02/17 04:31:49;;;;;;;;;;;;;;;29.14;20.13;100382.13;5071455;28;1035;-37
2022/02/17 04:34:14;;;;;;;;;;;;;;;29.34;20.23;100382.97;5078275;28;758;-39
2022/02/17 04:36:39;;;;;;;;;;;;;;;29.49;20.03;100379.25;5076618;28;885;-36
2022/02/17 04:39:05;;;;;;;;;;;;;;;28.31;21.44;100371.19;5077305;28;1909;-37
2022/02/17 04:44:14;;;;;;;;;;;;;;;28.98;20.67;100361.69;5077110;28;779;-37
2022/02/17 04:46:39;;;;;;;;;;;;;;;27.66;20.69;100359.50;5076888;28;758;-32
2022/02/17 04:49:04;;;;;;;;;;;;;;;25.59;22.56;100359.28;5077462;28;853;-32
2022/02/17 04:51:30;;;;;;;;;;;;;;;25.01;23.03;100354.34;5073305;28;940;-38
2022/02/17 04:53:55;;;;;;;;;;;;;;;25.33;22.40;100352.44;5077303;28;774;-38
2022/02/17 04:56:20;;;;;;;;;;;;;;;25.25;22.45;100358.72;5077064;28;889;-34
2022/02/17 04:58:45;;;;;;;;;;;;;;;25.25;22.59;100358.72;5075146;28;1935;-38
2022/02/17 05:01:11;;;;;;;;;;;;;;;25.18;22.91;100357.75;5077226;28;879;-39
2022/02/17 05:03:36;;;;;;;;;;;;;;;24.83;23.40;100355.44;5076835;28;1419;-33
2022/02/17 05:06:02;;;;;;;;;;;;;;;23.31;25.62;100355.09;5077938;28;817;-36
2022/02/17 05:08:27;;;;;;;;;;;;;;;22.38;24.31;100356.69;5076521;28;1695;-32
2022/02/17 05:10:53;;;;;;;;;;;;;;;21.35;25.86;100352.78;5072284;28;1379;-32
2022/02/17 05:13:18;;;;;;;;;;;;;;;21.11;25.84;100344.38;5076776;28;857;-32
2022/02/17 05:15:43;;;;;;;;;;;;;;;21.38;25.25;100349.81;5065491;28;1172;-33
2022/02/17 05:18:09;;;;;;;;;;;;;;;21.71;24.94;100350.06;5077021;28;1890;-30
2022/02/17 05:20:34;;;;;;;;;;;;;;;21.65;26.16;100345.34;5076707;28;995;-30
2022/02/17 05:22:59;;;;;;;;;;;;;;;21.47;25.86;100340.84;5075654;28;780;-32
2022/02/17 05:25:25;;;;;;;;;;;;;;;21.23;26.80;100342.34;5076710;28;772;-34
2022/02/17 05:27:50;;;;;;;;;;;;;;;21.16;25.68;100339.41;5076284;28;896;-34
2022/02/17 05:30:15;;;;;;;;;;;;;;;21.03;25.94;100338.97;5072317;28;1253;-35
2022/02/17 05:32:41;;;;;;;;;;;;;;;20.82;26.60;100340.03;5075665;28;1064;-32
2022/02/17 05:35:07;;;;;;;;;;;;;;;20.84;27.71;100334.53;5075984;28;938;-34
2022/02/17 05:37:32;;;;;;;;;;;;;;;20.60;28.04;100334.13;5076537;28;1901;-33
2022/02/17 05:39:57;;;;;;;;;;;;;;;20.59;28.42;100337.78;5074635;28;1123;-34
2022/02/17 05:42:23;;;;;;;;;;;;;;;20.35;27.74;100336.50;5073327;28;1386;-32
2022/02/17 05:44:48;;;;;;;;;;;;;;;19.89;29.11;100329.19;5076844;28;1332;-35
2022/02/17 05:47:13;;;;;;;;;;;;;;;20.26;28.54;100335.56;5075238;28;1114;-32
2022/02/17 05:49:39;;;;;;;;;;;;;;;20.89;28.12;100338.44;5069036;28;1421;-33
2022/02/17 05:52:04;;;;;;;;;;;;;;;20.78;27.98;100336.00;5076465;28;789;-31
2022/02/17 05:54:29;;;;;;;;;;;;;;;20.49;28.57;100337.00;5076528;28;815;-33
2022/02/17 05:56:55;;;;;;;;;;;;;;;20.25;28.92;100328.50;5075799;28;1010;-31
2022/02/17 05:59:20;;;;;;;;;;;;;;;20.37;29.05;100320.34;5076065;28;1972;-29
2022/02/17 06:01:45;;;;;;;;;;;;;;;20.12;29.65;100318.16;5073635;28;923;-31
2022/02/17 06:04:11;;;;;;;;;;;;;;;20.13;29.58;100319.03;5070588;28;1312;-33
2022/02/17 06:06:36;;;;;;;;;;;;;;;19.87;29.57;100304.44;5071149;28;1257;-34
2022/02/17 06:09:02;;;;;;;;;;;;;;;19.88;29.34;100311.50;5076089;28;1127;-32
2022/02/17 06:11:28;;;;;;;;;;;;;;;19.99;29.33;100310.47;5075388;28;952;-34
2022/02/17 06:13:53;;;;;;;;;;;;;;;19.98;29.21;100306.13;5075945;28;823;-31
2022/02/17 06:16:18;;;;;;;;;;;;;;;21.17;27.53;100298.28;5075811;28;1541;-29
2022/02/17 06:18:44;;;;;;;;;;;;;;;21.23;27.56;100299.53;5075513;28;1902;-38
2022/02/17 06:21:09;;;;;;;;;;;;;;;21.52;27.26;100298.41;5075781;28;889;-36
2022/02/17 06:23:34;;;;;;;;;;;;;;;21.94;27.89;100301.38;5072344;28;1498;-37
2022/02/17 06:25:59;;;;;;;;;;;;;;;22.17;26.95;100300.81;5073901;28;884;-38
2022/02/17 06:28:26;;;;;;;;;;;;;;;22.36;27.11;100291.69;5073838;28;848;-42
2022/02/17 06:30:51;;;;;;;;;;;;;;;22.38;27.37;100288.84;5073554;28;880;-35
2022/02/17 06:33:16;;;;;;;;;;;;;;;22.48;27.53;100286.03;5075152;28;1008;-39
2022/02/17 06:35:41;;;;;;;;;;;;;;;22.51;27.54;100288.38;5076000;28;856;-38
2022/02/17 06:38:07;;;;;;;;;;;;;;;22.55;27.71;100288.91;5073318;28;1918;-42
2022/02/17 06:40:32;;;;;;;;;;;;;;;22.57;28.32;100282.34;5075262;28;1317;-42
2022/02/17 06:43:07;;;;;;;;;;;;;;;22.97;27.53;100284.47;5076029;28;1364;-41
2022/02/17 06:45:33;;;;;;;;;;;;;;;22.75;28.47;100281.44;5075061;28;878;-42
2022/02/17 06:47:59;;;;;;;;;;;;;;;22.86;28.42;100273.06;5073434;28;1107;-42
2022/02/17 06:50:24;;;;;;;;;;;;;;;23.35;27.43;100275.94;5074332;28;1273;-43
2022/02/17 06:52:49;;;;;;;;;;;;;;;23.41;27.46;100264.53;5078748;28;1357;-41
2022/02/17 06:55:15;;;;;;;;;;;;;;;24.55;26.57;100278.78;5075243;28;1387;-43
2022/02/17 06:57:40;;;;;;;;;;;;;;;24.62;26.69;100264.63;5070464;28;1963;-42
2022/02/17 07:00:06;;;;;;;;;;;;;;;25.12;26.34;100262.44;5082466;28;1247;-39
2022/02/17 07:02:33;;;;;;;;;;;;;;;25.38;28.25;100261.19;5080543;28;1300;-42
2022/02/17 07:04:58;;;;;;;;;;;;;;;25.31;27.13;100258.41;5077693;28;1511;-42
2022/02/17 07:07:24;;;;;;;;;;;;;;;25.40;26.57;100266.38;5091789;28;1269;-43
2022/02/17 07:09:49;;;;;;;;;;;;;;;25.56;26.67;100270.75;5075381;28;1068;-45
2022/02/17 07:12:14;;;;;;;;;;;;;;;25.89;27.04;100272.31;5075103;28;1233;-44
2022/02/17 07:14:40;;;;;;;;;;;;;;;26.12;26.70;100280.28;5073603;28;1226;-44
2022/02/17 07:17:05;;;;;;;;;;;;;;;26.29;25.95;100280.91;5075019;28;1133;-43
2022/02/17 07:19:31;;;;;;;;;;;;;;;26.40;25.26;100279.63;5079055;28;842;-43
2022/02/17 07:21:56;;;;;;;;;;;;;;;26.47;25.77;100276.16;5079063;28;1431;-44
2022/02/17 07:24:21;;;;;;;;;;;;;;;26.58;25.69;100272.13;5076875;28;1273;-44
2022/02/17 07:26:47;;;;;;;;;;;;;;;26.67;25.90;100275.53;5075499;28;1433;-44
2022/02/17 07:29:12;;;;;;;;;;;;;;;26.73;24.96;100258.56;5080615;28;1288;-45
2022/02/17 07:31:37;;;;;;;;;;;;;;;26.71;24.72;100258.78;5071570;28;1242;-44
2022/02/17 07:34:03;;;;;;;;;;;;;;;26.80;25.04;100261.34;5076558;28;1271;-45
2022/02/17 07:36:30;;;;;;;;;;;;;;;26.65;25.77;100259.53;5077452;28;1194;-43
2022/02/17 07:38:55;;;;;;;;;;;;;;;26.35;25.16;100256.94;5075034;28;1918;-47
2022/02/17 07:41:21;;;;;;;;;;;;;;;26.38;25.80;100253.84;5075109;28;1175;-45
2022/02/17 07:43:46;;;;;;;;;;;;;;;26.48;26.24;100246.31;5078480;28;1198;-44
2022/02/17 07:46:12;;;;;;;;;;;;;;;26.42;25.99;100244.38;5073543;28;1583;-45
2022/02/17 07:48:37;;;;;;;;;;;;;;;26.51;26.42;100245.91;5083743;28;1355;-44
2022/02/17 07:51:03;;;;;;;;;;;;;;;26.57;26.81;100254.28;5079890;28;1265;-44
2022/02/17 07:53:28;;;;;;;;;;;;;;;26.59;26.33;100255.75;5081931;28;1178;-43
2022/02/17 07:55:53;;;;;;;;;;;;;;;26.78;26.40;100259.69;5080149;28;1400;-44
2022/02/17 07:58:19;;;;;;;;;;;;;;;26.48;25.60;100245.44;5078799;28;1898;-42
2022/02/17 08:00:44;;;;;;;;;;;;;;;26.01;25.54;100246.56;5075799;28;1537;-43
2022/02/17 08:03:10;;;;;;;;;;;;;;;25.96;26.33;100256.25;5080593;28;755;-43
2022/02/17 08:05:38;;;;;;;;;;;;;;;25.94;26.34;100253.75;5079926;28;844;-43
2022/02/17 08:08:04;;;;;;;;;;;;;;;25.95;26.32;100252.69;5073117;28;1309;-43
2022/02/17 08:10:29;;;;;;;;;;;;;;;25.76;26.27;100246.84;5068732;28;1373;-43
2022/02/17 08:12:55;;;;;;;;;;;;;;;25.74;26.15;100235.41;5069469;28;1475;-43
2022/02/17 08:15:20;;;;;;;;;;;;;;;26.10;26.01;100243.75;5072338;28;1377;-44
2022/02/17 08:17:45;;;;;;;;;;;;;;;25.99;26.26;100240.50;5077890;28;1898;-43
2022/02/17 08:20:11;;;;;;;;;;;;;;;25.92;26.03;100235.03;5080904;28;1423;-43
2022/02/17 08:22:36;;;;;;;;;;;;;;;25.76;25.96;100230.69;5079515;28;1542;-44
2022/02/17 08:25:02;;;;;;;;;;;;;;;25.76;26.08;100221.75;5076997;28;1353;-44
2022/02/17 08:27:27;;;;;;;;;;;;;;;25.83;25.64;100220.00;5076324;28;1478;-44
2022/02/17 08:29:53;;;;;;;;;;;;;;;25.95;25.50;100216.81;5076882;28;1585;-43
2022/02/17 08:32:18;;;;;;;;;;;;;;;26.00;25.31;100209.00;5076819;28;1324;-43
2022/02/17 08:34:43;;;;;;;;;;;;;;;25.96;25.60;100203.16;5078973;28;1081;-43
2022/02/17 08:37:10;;;;;;;;;;;;;;;26.04;25.77;100202.25;5075119;28;1258;-44
2022/02/17 08:39:35;;;;;;;;;;;;;;;25.84;25.62;100201.97;5087853;28;1399;-44
2022/02/17 08:42:00;;;;;;;;;;;;;;;25.73;25.85;100197.88;5079414;28;1337;-44
2022/02/17 08:44:26;;;;;;;;;;;;;;;25.67;25.81;100194.09;5078663;28;1459;-44
2022/02/17 08:46:51;;;;;;;;;;;;;;;25.70;26.30;100203.66;5070899;28;1531;-43
2022/02/17 08:49:17;;;;;;;;;;;;;;;26.10;25.64;100197.94;5077087;28;1412;-46
2022/02/17 08:51:42;;;;;;;;;;;;;;;26.14;24.74;100188.44;5074823;28;1190;-45
2022/02/17 08:54:07;;;;;;;;;;;;;;;26.42;25.07;100179.66;5072202;28;1475;-45
2022/02/17 08:56:33;;;;;;;;;;;;;;;26.51;24.47;100189.28;5072509;28;1349;-44
2022/02/17 08:58:58;;;;;;;;;;;;;;;26.44;25.07;100192.94;5075557;28;1902;-45
2022/02/17 09:01:23;;;;;;;;;;;;;;;26.45;24.85;100187.34;5072951;28;1278;-44
2022/02/17 09:03:49;;;;;;;;;;;;;;;26.28;24.30;100189.41;5076883;28;1585;-44
2022/02/17 09:06:14;;;;;;;;;;;;;;;26.23;24.88;100205.31;5070571;28;1206;-45
2022/02/17 09:08:40;;;;;;;;;;;;;;;26.25;25.08;100192.50;5073886;28;1605;-46
2022/02/17 09:11:06;;;;;;;;;;;;;;;26.05;25.67;100198.50;5075815;28;915;-45
2022/02/17 09:13:31;;;;;;;;;;;;;;;26.02;25.79;100205.13;5068401;28;1369;-45
2022/02/17 09:15:57;;;;;;;;;;;;;;;26.24;25.65;100201.63;5076334;28;1297;-45
2022/02/17 09:18:22;;;;;;;;;;;;;;;26.39;25.67;100197.03;5072713;28;1957;-45
2022/02/17 09:20:47;;;;;;;;;;;;;;;26.51;24.95;100191.97;5074937;28;1088;-45
2022/02/17 09:23:13;;;;;;;;;;;;;;;26.62;25.45;100182.53;5075236;28;1388;-44
2022/02/17 09:25:38;;;;;;;;;;;;;;;26.56;25.27;100180.59;5073994;28;1503;-44
2022/02/17 09:28:04;;;;;;;;;;;;;;;26.27;25.70;100174.28;5073537;28;1314;-44
2022/02/17 09:30:29;;;;;;;;;;;;;;;26.30;26.04;100171.19;5068966;28;1279;-44
2022/02/17 09:32:54;;;;;;;;;;;;;;;26.56;24.88;100174.38;5071336;28;1210;-44
2022/02/17 09:35:20;;;;;;;;;;;;;;;26.64;24.38;100160.75;5072349;28;1330;-44
2022/02/17 09:37:45;;;;;;;;;;;;;;;26.63;25.28;100138.34;5077198;28;1897;-45
2022/02/17 09:40:10;;;;;;;;;;;;;;;26.81;25.16;100142.41;5075638;28;1246;-47
2022/02/17 09:42:39;;;;;;;;;;;;;;;26.60;24.57;100133.34;5070626;28;1471;-45
2022/02/17 09:45:09;;;;;;;;;;;;;;;26.51;24.34;100131.78;5069198;28;1114;-45
2022/02/17 09:47:38;;;;;;;;;;;;;;;26.36;24.52;100119.22;5066396;28;1475;-45
2022/02/17 09:50:07;;;;;;;;;;;;;;;26.31;24.36;100116.22;5068723;28;1407;-45
2022/02/17 09:52:34;;;;;;;;;;;;;;;26.26;24.48;100107.88;5071308;28;1372;-45
2022/02/17 09:54:59;;;;;;;;;;;;;;;26.25;24.49;100098.97;5072480;28;1471;-45
2022/02/17 09:57:25;;;;;;;;;;;;;;;26.18;24.56;100106.16;5074066;28;1955;-43
2022/02/17 09:59:50;;;;;;;;;;;;;;;26.17;24.09;100102.63;5074849;28;1669;-44
2022/02/17 10:02:22;;;;;;;;;;;;;;;26.22;23.97;100101.22;5071304;28;1247;-39
2022/02/17 10:04:54;;;;;;;;;;;;;;;26.15;23.57;100080.44;5068290;28;1624;-39
2022/02/17 10:07:33;;;;;;;;;;;;;;;26.17;23.86;100069.47;5073261;28;1406;-38
2022/02/17 10:09:59;;;;;;;;;;;;;;;26.22;23.64;100068.88;5069947;28;1425;-39
2022/02/17 10:12:24;;;;;;;;;;;;;;;26.29;23.32;100061.69;5071655;28;1637;-39
2022/02/17 10:14:59;;;;;;;;;;;;;;;26.39;23.06;100062.19;5070281;28;1390;-38
2022/02/17 10:17:25;;;;;;;;;;;;;;;26.62;23.66;100047.66;5065040;28;1961;-42
2022/02/17 10:19:52;;;;;;;;;;;;;;;26.72;23.17;100043.78;5070964;28;1456;-47
2022/02/17 10:22:23;;;;;;;;;;;;;;;26.62;22.60;100022.53;5072072;28;1132;-44
2022/02/17 10:24:49;;;;;;;;;;;;;;;26.59;23.27;100029.16;5075915;28;977;-42
2022/02/17 10:27:18;;;;;;;;;;;;;;;26.68;29.45;100027.13;5072388;28;1143;-44
2022/02/17 10:30:10;;;;;;;;;;;;;;;26.53;30.71;100017.31;5076775;28;1321;-46
2022/02/17 10:32:35;;;;;;;;;;;;;;;26.54;30.73;100015.44;5073604;28;1016;-43
2022/02/17 10:35:08;;;;;;;;;;;;;;;26.52;30.58;100007.56;5072113;28;1175;-44
2022/02/17 10:37:46;;;;;;;;;;;;;;;26.59;29.52;99998.66;5067041;28;1902;-46
2022/02/17 10:40:17;;;;;;;;;;;;;;;26.20;22.43;99995.44;5075010;28;1498;-44
2022/02/17 10:42:42;;;;;;;;;;;;;;;26.25;23.31;99982.22;5072083;28;1332;-42
2022/02/17 10:45:26;;;;;;;;;;;;;;;26.52;23.93;99974.34;5072617;28;1381;-42
2022/02/17 10:47:51;;;;;;;;;;;;;;;26.82;23.24;99971.41;5079021;28;1244;-44
2022/02/17 10:50:20;;;;;;;;;;;;;;;26.87;24.32;99960.84;5075470;28;1315;-44
2022/02/17 10:52:45;;;;;;;;;;;;;;;26.83;23.89;99997.34;5071610;28;1299;-47
2022/02/17 10:55:11;;;;;;;;;;;;;;;27.07;22.96;99976.31;5067699;28;1247;-42
2022/02/17 10:57:37;;;;;;;;;;;;;;;27.21;22.74;99974.47;5069819;28;1890;-42
2022/02/17 11:00:23;;;;;;;;;;;;;;;27.35;22.24;99985.31;5073530;28;1265;-42
2022/02/17 11:02:49;;;;;;;;;;;;;;;27.56;21.80;99972.72;5067539;28;1805;-41
2022/02/17 11:05:15;;;;;;;;;;;;;;;27.54;21.44;99955.88;5070422;28;1115;-41
2022/02/17 11:07:40;;;;;;;;;;;;;;;27.29;21.86;99949.19;5070230;28;1310;-42
2022/02/17 11:10:07;;;;;;;;;;;;;;;27.47;22.21;99945.06;5068175;28;1330;-42
2022/02/17 11:12:33;;;;;;;;;;;;;;;27.50;22.53;99917.63;5071757;28;1289;-42
2022/02/17 11:14:58;;;;;;;;;;;;;;;27.56;22.97;99919.50;5073594;28;1479;-43
2022/02/17 11:17:24;;;;;;;;;;;;;;;27.44;23.44;99918.47;5073056;28;1898;-42
2022/02/17 11:19:49;;;;;;;;;;;;;;;27.41;23.75;99892.69;5071272;28;814;-42
2022/02/17 11:22:16;;;;;;;;;;;;;;;27.51;23.74;99900.38;5071220;28;1340;-41
2022/02/17 11:24:46;;;;;;;;;;;;;;;27.41;24.57;99887.28;5073094;28;1409;-41
2022/02/17 11:27:11;;;;;;;;;;;;;;;27.71;23.82;99883.41;5073328;28;955;-41
2022/02/17 11:29:38;;;;;;;;;;;;;;;27.60;23.98;99882.94;5070962;28;2637;-41
2022/02/17 11:32:04;;;;;;;;;;;;;;;27.50;24.27;99880.66;5070045;28;1380;-41
2022/02/17 11:34:38;;;;;;;;;;;;;;;27.67;24.16;99880.25;5077237;28;1392;-41
2022/02/17 11:37:30;;;;;;;;;;;;;;;27.34;24.46;99903.47;5078866;28;1321;-41
2022/02/17 11:39:59;;;;;;;;;;;;;;;27.18;23.45;99884.94;5066227;28;1483;-41
2022/02/17 11:42:28;;;;;;;;;;;;;;;27.18;23.41;99883.09;5079132;28;1266;-41
2022/02/17 11:45:06;;;;;;;;;;;;;;;27.02;23.46;99881.63;5073282;28;1300;-41
2022/02/17 11:47:50;;;;;;;;;;;;;;;27.22;24.23;99884.38;5072703;28;1225;-40
2022/02/17 11:50:31;;;;;;;;;;;;;;;27.41;23.48;99879.19;5073893;28;1190;-42
2022/02/17 11:53:14;;;;;;;;;;;;;;;27.80;23.31;99881.28;5064611;28;1334;-42
2022/02/17 11:55:40;;;;;;;;;;;;;;;28.15;23.05;99866.69;5072326;28;1255;-38
2022/02/17 11:58:16;;;;;;;;;;;;;;;28.04;23.53;99865.47;5075891;28;1906;-37
2022/02/17 12:00:41;;;;;;;;;;;;;;;28.31;22.63;99868.94;5073204;28;1445;-37
2022/02/17 12:03:06;;;;;;;;;;;;;;;28.32;21.57;99858.97;5075180;28;1210;-37
2022/02/17 12:05:32;;;;;;;;;;;;;;;27.98;22.34;99877.94;5068769;28;1253;-38
2022/02/17 12:08:16;;;;;;;;;;;;;;;27.97;23.32;99858.22;5084425;28;809;-38
2022/02/17 12:10:41;;;;;;;;;;;;;;;27.94;22.51;99869.44;5074670;28;1522;-37
2022/02/17 12:13:09;;;;;;;;;;;;;;;27.94;21.95;99858.66;5076875;28;1397;-37
2022/02/17 12:15:35;;;;;;;;;;;;;;;27.78;22.00;99846.38;5073834;28;1254;-37
2022/02/17 12:18:00;;;;;;;;;;;;;;;27.94;21.63;99847.84;5077881;28;1968;-37
2022/02/17 12:20:28;;;;;;;;;;;;;;;28.33;21.56;99847.13;5077130;28;1605;-37
2022/02/17 12:22:54;;;;;;;;;;;;;;;28.06;22.34;99842.59;5074303;28;1383;-38
2022/02/17 12:25:20;;;;;;;;;;;;;;;27.90;22.17;99848.44;5074751;28;1520;-38
2022/02/17 12:28:06;;;;;;;;;;;;;;;27.65;21.82;99846.34;5077647;28;1111;-39
2022/02/17 12:30:35;;;;;;;;;;;;;;;28.09;22.00;99834.03;5074781;28;1182;-40
2022/02/17 12:33:08;;;;;;;;;;;;;;;27.91;21.93;99840.13;5073656;28;1246;-41
2022/02/17 12:35:34;;;;;;;;;;;;;;;28.42;21.59;99829.63;5071424;28;1562;-39
2022/02/17 12:38:02;;;;;;;;;;;;;;;28.48;21.03;99833.31;5073914;28;1905;-39
2022/02/17 12:40:30;;;;;;;;;;;;;;;28.51;20.99;99824.78;5072959;28;1431;-40
2022/02/17 12:42:56;;;;;;;;;;;;;;;28.51;20.36;99827.47;5074540;28;1488;-40
2022/02/17 12:45:34;;;;;;;;;;;;;;;28.90;21.27;99822.09;5077137;28;1177;-40
2022/02/17 12:48:00;;;;;;;;;;;;;;;28.34;21.15;99787.41;5077424;28;1213;-40
2022/02/17 12:56:31;;;;;;;;;;;;;;;30.45;19.23;99805.47;5065637;28;1415;-38
2022/02/17 12:59:03;;;;;;;;;;;;;;;30.96;18.96;99807.13;5076363;28;1910;-41